createdAt,value
2017-12-08T00:00:15.279Z,99848.98
2017-12-08T00:02:41.052Z,99843.23
2017-12-08T00:05:06.826Z,99849.22
2017-12-08T00:07:33.588Z,99850.22
2017-12-08T00:09:59.411Z,99847.41
2017-12-08T00:12:25.991Z,99846.00
2017-12-08T00:14:51.759Z,99842.19
2017-12-08T00:17:18.543Z,99843.93
2017-12-08T00:19:45.200Z,99839.72
2017-12-08T00:22:11.988Z,99836.00
2017-12-08T00:24:37.761Z,99833.80
2017-12-08T00:27:03.523Z,99836.86
2017-12-08T00:29:29.292Z,99829.59
2017-12-08T00:31:55.060Z,99832.32
2017-12-08T00:34:21.828Z,99830.21
2017-12-08T00:36:48.568Z,99829.84
2017-12-08T00:39:15.347Z,99839.45
2017-12-08T00:41:41.111Z,99836.48
2017-12-08T00:44:07.674Z,99839.67
2017-12-08T00:46:34.351Z,99846.00
2017-12-08T00:49:01.153Z,99840.87
2017-12-08T00:51:27.909Z,99837.66
2017-12-08T00:53:53.670Z,99840.84
2017-12-08T00:56:20.430Z,99840.37
2017-12-08T00:58:47.107Z,99837.37
2017-12-08T01:01:13.871Z,99831.21
2017-12-08T01:03:39.654Z,99825.87
2017-12-08T01:06:06.389Z,99818.03
2017-12-08T01:08:32.165Z,99818.06
2017-12-08T01:10:57.970Z,99815.17
2017-12-08T01:13:23.743Z,99813.89
2017-12-08T01:15:49.512Z,99814.55
2017-12-08T01:18:16.192Z,99815.20
2017-12-08T01:20:41.995Z,99814.76
2017-12-08T01:23:07.807Z,99810.75
2017-12-08T01:25:33.583Z,99808.59
2017-12-08T01:27:59.343Z,99809.27
2017-12-08T01:30:25.114Z,99803.81
2017-12-08T01:32:50.875Z,99812.16
2017-12-08T01:35:16.647Z,99813.47
2017-12-08T01:37:42.459Z,99807.39
2017-12-08T01:40:08.287Z,99803.22
2017-12-08T01:42:34.059Z,99802.48
2017-12-08T01:44:59.962Z,99795.86
2017-12-08T01:47:25.739Z,99802.05
2017-12-08T01:49:51.499Z,99789.80
2017-12-08T01:52:18.043Z,99786.28
2017-12-08T01:54:43.851Z,99787.48
2017-12-08T01:57:09.632Z,99777.39
2017-12-08T01:59:35.399Z,99778.02
2017-12-08T02:02:02.013Z,99783.67
2017-12-08T02:04:27.783Z,99777.68
2017-12-08T02:06:53.587Z,99779.46
2017-12-08T02:09:19.366Z,99778.72
2017-12-08T02:11:45.168Z,99779.80
2017-12-08T02:14:10.943Z,99771.66
2017-12-08T02:16:36.714Z,99774.88
2017-12-08T02:19:02.483Z,99777.34
2017-12-08T02:21:28.255Z,99778.97
2017-12-08T02:23:54.028Z,99775.25
2017-12-08T02:26:19.788Z,99765.28
2017-12-08T02:28:45.564Z,99773.52
2017-12-08T02:31:11.344Z,99777.89
2017-12-08T02:33:37.123Z,99774.70
2017-12-08T02:36:02.895Z,99772.59
2017-12-08T02:38:29.622Z,99775.10
2017-12-08T02:40:55.391Z,99779.13
2017-12-08T02:43:22.127Z,99779.71
2017-12-08T02:45:47.888Z,99775.28
2017-12-08T02:48:14.748Z,99780.73
2017-12-08T02:50:40.527Z,99782.48
2017-12-08T02:53:07.280Z,99776.97
2017-12-08T02:55:34.023Z,99775.86
2017-12-08T02:58:00.739Z,99769.00
2017-12-08T03:00:27.483Z,99767.77
2017-12-08T03:02:53.259Z,99767.81
2017-12-08T03:05:19.074Z,99761.10
2017-12-08T03:07:45.779Z,99758.06
2017-12-08T03:10:12.523Z,99748.36
2017-12-08T03:12:39.240Z,99732.00
2017-12-08T03:15:05.148Z,99732.27
2017-12-08T03:17:31.907Z,99739.06
2017-12-08T03:19:57.671Z,99748.17
2017-12-08T03:22:24.407Z,99746.77
2017-12-08T03:24:51.200Z,99742.53
2017-12-08T03:27:16.989Z,99745.34
2017-12-08T03:29:42.768Z,99744.11
2017-12-08T03:32:08.608Z,99747.94
2017-12-08T03:34:34.447Z,99750.14
2017-12-08T03:37:00.213Z,99750.59
2017-12-08T03:39:25.991Z,99749.59
2017-12-08T03:41:51.771Z,99747.34
2017-12-08T03:44:17.563Z,99754.69
2017-12-08T03:46:44.304Z,99752.82
2017-12-08T03:49:11.159Z,99747.81
2017-12-08T03:51:36.927Z,99745.71
2017-12-08T03:54:02.689Z,99738.15
2017-12-08T03:56:28.460Z,99739.67
2017-12-08T03:58:55.074Z,99737.09
2017-12-08T04:01:20.836Z,99738.44
2017-12-08T04:03:46.615Z,99748.17
2017-12-08T04:06:12.375Z,99752.20
2017-12-08T04:08:39.112Z,99740.63
2017-12-08T04:11:04.915Z,99745.88
2017-12-08T04:13:30.734Z,99740.38
2017-12-08T04:15:56.531Z,99747.92
2017-12-08T04:18:23.252Z,99740.05
2017-12-08T04:20:49.015Z,99740.25
2017-12-08T04:23:15.769Z,99739.98
2017-12-08T04:25:41.531Z,99754.35
2017-12-08T04:28:08.155Z,99752.39
2017-12-08T04:30:34.892Z,99762.88
2017-12-08T04:33:00.664Z,99766.70
2017-12-08T04:35:27.375Z,99771.92
2017-12-08T04:37:53.140Z,99778.74
2017-12-08T04:40:19.875Z,99772.99
2017-12-08T04:42:45.679Z,99776.42
2017-12-08T04:45:12.438Z,99780.81
2017-12-08T04:47:39.194Z,99782.89
2017-12-08T04:50:05.986Z,99778.03
2017-12-08T04:52:31.757Z,99772.47
2017-12-08T04:54:57.523Z,99776.92
2017-12-08T04:57:23.299Z,99776.94
2017-12-08T04:59:49.151Z,99778.84
2017-12-08T05:02:15.735Z,99785.04
2017-12-08T05:04:42.475Z,99787.44
2017-12-08T05:07:08.279Z,99786.73
2017-12-08T05:09:34.047Z,99786.11
2017-12-08T05:12:00.752Z,99795.98
2017-12-08T05:14:27.543Z,99796.48
2017-12-08T05:16:54.340Z,99792.65
2017-12-08T05:19:20.143Z,99791.16
2017-12-08T05:21:45.919Z,99791.04
2017-12-08T05:24:11.744Z,99791.48
2017-12-08T05:26:37.521Z,99801.20
2017-12-08T05:29:03.287Z,99800.58
2017-12-08T05:31:29.048Z,99800.09
2017-12-08T05:33:54.847Z,99793.27
2017-12-08T05:36:20.609Z,99790.98
2017-12-08T05:38:47.455Z,99786.66
2017-12-08T05:41:13.227Z,99790.78
2017-12-08T05:43:38.991Z,99791.78
2017-12-08T05:46:04.768Z,99793.14
2017-12-08T05:48:30.534Z,99792.11
2017-12-08T05:50:56.306Z,99788.18
2017-12-08T05:53:22.087Z,99781.23
2017-12-08T05:55:47.863Z,99790.06
2017-12-08T05:58:13.639Z,99787.06
2017-12-08T06:00:39.464Z,99789.46
2017-12-08T06:03:05.241Z,99792.43
2017-12-08T06:05:31.008Z,99799.25
2017-12-08T06:07:56.780Z,99805.36
2017-12-08T06:10:22.546Z,99814.33
2017-12-08T06:12:49.234Z,99808.10
2017-12-08T06:15:15.003Z,99815.31
2017-12-08T06:17:40.793Z,99811.64
2017-12-08T06:20:06.563Z,99816.45
2017-12-08T06:22:33.368Z,99809.83
2017-12-08T06:25:00.078Z,99814.16
2017-12-08T06:27:25.853Z,99812.42
2017-12-08T06:29:51.615Z,99813.14
2017-12-08T06:32:17.388Z,99807.67
2017-12-08T06:34:43.172Z,99807.95
2017-12-08T06:37:08.983Z,99805.34
2017-12-08T06:39:34.743Z,99811.45
2017-12-08T06:42:00.523Z,99811.23
2017-12-08T06:44:26.288Z,99803.86
2017-12-08T06:46:52.071Z,99811.90
2017-12-08T06:49:18.790Z,99810.36
2017-12-08T06:51:44.554Z,99808.73
2017-12-08T06:54:10.453Z,99821.59
2017-12-08T06:56:36.595Z,99826.50
2017-12-08T06:59:02.408Z,99829.66
2017-12-08T07:01:28.367Z,99842.14
2017-12-08T07:03:54.987Z,99842.19
2017-12-08T07:06:20.761Z,99840.46
2017-12-08T07:08:47.589Z,99843.00
2017-12-08T07:12:16.495Z,99847.10
2017-12-08T07:14:42.268Z,99850.95
2017-12-08T07:17:08.910Z,99849.55
2017-12-08T07:19:34.656Z,99839.62
2017-12-08T07:22:01.543Z,99847.47
2017-12-08T07:24:27.307Z,99846.05
2017-12-08T07:26:53.247Z,99850.55
2017-12-08T07:29:19.859Z,99857.13
2017-12-08T07:31:46.600Z,99853.89
2017-12-08T07:34:12.379Z,99851.72
2017-12-08T07:36:39.079Z,99855.78
2017-12-08T07:39:04.896Z,99853.09
2017-12-08T07:41:30.674Z,99862.98
2017-12-08T07:43:56.449Z,99860.86
2017-12-08T07:46:22.355Z,99859.75
2017-12-08T07:48:48.120Z,99862.47
2017-12-08T07:51:13.908Z,99867.86
2017-12-08T07:53:40.636Z,99866.61
2017-12-08T07:56:06.411Z,99869.72
2017-12-08T07:58:32.175Z,99869.10
2017-12-08T08:00:57.955Z,99871.09
2017-12-08T08:03:24.635Z,99864.34
2017-12-08T08:05:51.391Z,99868.26
2017-12-08T08:08:17.191Z,99861.05
2017-12-08T08:10:42.992Z,99863.48
2017-12-08T08:13:08.772Z,99863.22
2017-12-08T08:15:34.592Z,99869.65
2017-12-08T08:18:00.376Z,99871.55
2017-12-08T08:20:26.148Z,99873.75
2017-12-08T08:22:52.056Z,99886.08
2017-12-08T08:25:17.835Z,99881.78
2017-12-08T08:27:43.610Z,99879.61
2017-12-08T08:30:09.387Z,99882.91
2017-12-08T08:32:35.202Z,99884.50
2017-12-08T08:35:00.968Z,99885.93
2017-12-08T08:37:26.744Z,99886.80
2017-12-08T08:39:52.524Z,99887.78
2017-12-08T08:42:18.305Z,99885.26
2017-12-08T08:44:44.080Z,99889.31
2017-12-08T08:47:09.865Z,99889.75
2017-12-08T08:49:35.644Z,99893.42
2017-12-08T08:52:01.492Z,99901.22
2017-12-08T08:54:27.274Z,99904.81
2017-12-08T08:56:53.096Z,99903.18
2017-12-08T08:59:18.876Z,99900.81
2017-12-08T09:01:44.664Z,99902.98
2017-12-08T09:04:10.439Z,99908.03
2017-12-08T09:06:36.849Z,99910.55
2017-12-08T09:09:03.680Z,99911.69
2017-12-08T09:11:29.471Z,99922.76
2017-12-08T09:13:55.356Z,99918.30
2017-12-08T09:16:21.136Z,99912.84
2017-12-08T09:18:46.912Z,99921.77
2017-12-08T09:21:12.742Z,99924.98
2017-12-08T09:23:38.631Z,99925.25
2017-12-08T09:26:04.415Z,99932.14
2017-12-08T09:28:30.200Z,99929.62
2017-12-08T09:30:56.135Z,99925.25
2017-12-08T09:33:22.788Z,99925.33
2017-12-08T09:35:48.555Z,99922.59
2017-12-08T09:38:14.590Z,99921.98
2017-12-08T09:40:40.394Z,99916.15
2017-12-08T09:43:06.216Z,99922.27
2017-12-08T09:45:32.037Z,99920.86
2017-12-08T09:47:57.831Z,99921.48
2017-12-08T09:50:23.623Z,99921.56
2017-12-08T09:52:49.396Z,99921.36
2017-12-08T09:55:15.367Z,99925.20
2017-12-08T09:57:42.119Z,99924.98
2017-12-08T10:00:07.906Z,99922.34
2017-12-08T10:02:33.810Z,99916.27
2017-12-08T10:05:00.452Z,99916.27
2017-12-08T10:07:26.351Z,99913.41
2017-12-08T10:09:52.171Z,99918.17
2017-12-08T10:12:18.104Z,99917.19
2017-12-08T10:14:45.129Z,99918.59
2017-12-08T10:17:11.134Z,99909.53
2017-12-08T10:19:37.221Z,99907.72
2017-12-08T10:22:03.273Z,99907.88
2017-12-08T10:24:29.170Z,99897.01
2017-12-08T10:26:55.719Z,99897.01
2017-12-08T10:29:21.619Z,99898.53
2017-12-08T10:31:47.561Z,99905.82
2017-12-08T10:34:13.543Z,99906.52
2017-12-08T10:36:39.400Z,99902.67
2017-12-08T10:39:05.192Z,99903.41
2017-12-08T10:41:31.008Z,99902.63
2017-12-08T10:43:56.846Z,99896.64
2017-12-08T10:46:22.656Z,99899.44
2017-12-08T10:48:48.439Z,99892.00
2017-12-08T10:51:14.297Z,99902.43
2017-12-08T10:53:40.099Z,99907.89
2017-12-08T10:56:05.871Z,99907.39
2017-12-08T10:58:31.800Z,99917.36
2017-12-08T11:00:57.586Z,99912.19
2017-12-08T11:03:23.387Z,99917.61
2017-12-08T11:05:49.147Z,99921.08
2017-12-08T11:08:15.203Z,99926.08
2017-12-08T11:10:41.011Z,99922.66
2017-12-08T11:13:07.804Z,99915.95
2017-12-08T11:15:33.634Z,99914.21
2017-12-08T11:17:59.590Z,99920.30
2017-12-08T11:20:25.562Z,99912.60
2017-12-08T11:22:51.643Z,99913.97
2017-12-08T11:25:17.457Z,99903.55
2017-12-08T11:27:43.605Z,99904.50
2017-12-08T11:30:09.605Z,99910.45
2017-12-08T11:32:35.473Z,99900.81
2017-12-08T11:35:01.331Z,99902.13
2017-12-08T11:37:27.217Z,99901.44
2017-12-08T11:39:53.171Z,99902.50
2017-12-08T11:42:19.063Z,99906.55
2017-12-08T11:44:44.891Z,99903.17
2017-12-08T11:47:11.536Z,99906.14
2017-12-08T11:49:37.303Z,99908.70
2017-12-08T11:52:03.063Z,99901.84
2017-12-08T11:54:28.840Z,99902.76
2017-12-08T11:56:54.609Z,99900.11
2017-12-08T11:59:21.635Z,99904.63
2017-12-08T12:01:47.484Z,99893.66
2017-12-08T12:04:13.281Z,99893.08
2017-12-08T12:06:39.136Z,99890.11
2017-12-08T12:09:05.024Z,99891.39
2017-12-08T12:11:30.976Z,99900.61
2017-12-08T12:13:56.874Z,99894.00
2017-12-08T12:16:39.971Z,99900.12
2017-12-08T12:19:05.779Z,99897.47
2017-12-08T12:21:32.652Z,99891.22
2017-12-08T12:24:00.684Z,99897.47
2017-12-08T12:26:27.313Z,99900.03
2017-12-08T12:28:53.101Z,99899.41
2017-12-08T12:31:20.990Z,99901.52
2017-12-08T12:33:47.043Z,99905.03
2017-12-08T12:36:13.252Z,99913.83
2017-12-08T12:38:39.944Z,99906.77
2017-12-08T12:41:05.748Z,99908.47
2017-12-08T12:43:31.537Z,99903.52
2017-12-08T12:45:58.356Z,99903.92
2017-12-08T12:48:25.161Z,99897.63
2017-12-08T12:50:52.641Z,99893.87
2017-12-08T12:53:18.626Z,99896.68
2017-12-08T12:55:44.475Z,99898.34
2017-12-08T12:58:10.296Z,99891.47
2017-12-08T13:00:37.676Z,99897.27
2017-12-08T13:03:03.500Z,99896.31
2017-12-08T13:05:29.267Z,99904.95
2017-12-08T13:07:55.980Z,99905.23
2017-12-08T13:10:21.855Z,99902.92
2017-12-08T13:12:47.668Z,99894.61
2017-12-08T13:15:13.531Z,99892.02
2017-12-08T13:17:39.412Z,99890.61
2017-12-08T13:20:05.180Z,99891.31
2017-12-08T13:22:31.055Z,99894.78
2017-12-08T13:24:57.759Z,99890.40
2017-12-08T13:27:23.534Z,99888.82
2017-12-08T13:29:49.300Z,99888.33
2017-12-08T13:32:15.153Z,99891.02
2017-12-08T13:34:40.963Z,99882.66
2017-12-08T13:37:06.827Z,99884.58
2017-12-08T13:39:32.592Z,99879.94
2017-12-08T13:41:58.431Z,99875.89
2017-12-08T13:44:24.200Z,99880.09
2017-12-08T13:46:49.971Z,99882.25
2017-12-08T13:49:15.747Z,99876.12
2017-12-08T13:51:41.569Z,99882.21
2017-12-08T13:54:13.573Z,99880.52
2017-12-08T13:56:45.518Z,99885.93
2017-12-08T13:59:11.292Z,99881.22
2017-12-08T14:01:37.065Z,99887.38
2017-12-08T14:04:02.852Z,99896.43
2017-12-08T14:06:28.607Z,99899.52
2017-12-08T14:08:54.374Z,99896.44
2017-12-08T14:11:20.148Z,99892.17
2017-12-08T14:13:47.035Z,99893.18
2017-12-08T14:16:12.911Z,99889.76
2017-12-08T14:18:38.759Z,99883.90
2017-12-08T14:21:04.554Z,99882.30
2017-12-08T14:23:30.358Z,99887.75
2017-12-08T14:25:56.135Z,99890.73
2017-12-08T14:28:21.906Z,99897.30
2017-12-08T14:30:47.703Z,99896.64
2017-12-08T14:33:13.503Z,99901.70
2017-12-08T14:35:39.267Z,99903.35
2017-12-08T14:38:05.068Z,99898.94
2017-12-08T14:40:30.843Z,99898.08
2017-12-08T14:42:56.607Z,99895.84
2017-12-08T14:45:22.415Z,99896.59
2017-12-08T14:47:48.220Z,99892.75
2017-12-08T14:50:13.980Z,99894.58
2017-12-08T14:52:39.744Z,99897.98
2017-12-08T14:55:05.524Z,99898.45
2017-12-08T14:57:31.305Z,99902.63
2017-12-08T14:59:57.200Z,99899.94
2017-12-08T15:02:23.207Z,99895.35
2017-12-08T15:04:49.126Z,99899.86
2017-12-08T15:07:16.089Z,99895.27
2017-12-08T15:09:43.524Z,99900.25
2017-12-08T15:12:13.931Z,99896.81
2017-12-08T15:14:39.854Z,99899.38
2017-12-08T15:17:05.779Z,99898.56
2017-12-08T15:19:31.579Z,99904.55
2017-12-08T15:21:57.340Z,99899.48
2017-12-08T15:24:23.147Z,99901.22
2017-12-08T15:26:49.103Z,99904.48
2017-12-08T15:29:14.875Z,99899.39
2017-12-08T15:31:40.683Z,99904.14
2017-12-08T15:34:06.465Z,99902.92
2017-12-08T15:36:32.416Z,99899.69
2017-12-08T15:38:58.191Z,99896.11
2017-12-08T15:41:24.755Z,99896.49
2017-12-08T15:43:50.720Z,99900.77
2017-12-08T15:46:16.747Z,99894.81
2017-12-08T15:48:42.552Z,99897.36
2017-12-08T15:51:08.547Z,99896.85
2017-12-08T15:53:35.283Z,99901.25
2017-12-08T15:56:01.052Z,99896.23
2017-12-08T15:58:26.825Z,99889.48
2017-12-08T16:00:53.655Z,99894.66
2017-12-08T16:03:19.427Z,99888.70
2017-12-08T16:05:46.235Z,99893.63
2017-12-08T16:08:12.999Z,99889.80
2017-12-08T16:10:38.771Z,99894.91
2017-12-08T16:13:04.547Z,99888.34
2017-12-08T16:15:30.352Z,99890.67
2017-12-08T16:17:56.299Z,99891.05
2017-12-08T16:20:22.096Z,99879.80
2017-12-08T16:22:47.940Z,99886.64
2017-12-08T16:25:13.712Z,99892.33
2017-12-08T16:27:39.599Z,99889.88
2017-12-08T16:30:05.372Z,99895.22
2017-12-08T16:32:31.142Z,99921.02
2017-12-08T16:34:57.963Z,99945.32
2017-12-08T16:37:23.874Z,99958.52
2017-12-08T16:39:49.652Z,99972.84
2017-12-08T16:42:16.434Z,99964.27
2017-12-08T16:44:42.206Z,99970.19
2017-12-08T16:47:08.017Z,99971.50
2017-12-08T16:49:33.793Z,99974.09
2017-12-08T16:52:00.472Z,99972.64
2017-12-08T16:54:26.243Z,99977.77
2017-12-08T16:56:52.017Z,99979.89
2017-12-08T16:59:17.793Z,99974.73
2017-12-08T17:01:43.712Z,99972.05
2017-12-08T17:04:09.482Z,99966.42
2017-12-08T17:06:35.252Z,99963.84
2017-12-08T17:09:01.032Z,99967.51
2017-12-08T17:11:26.801Z,99964.92
2017-12-08T17:13:52.741Z,99963.41
2017-12-08T17:16:18.631Z,99960.27
2017-12-08T17:18:44.554Z,99964.23
2017-12-08T17:21:10.351Z,99958.48
2017-12-08T17:23:36.195Z,99959.45
2017-12-08T17:26:01.979Z,99964.11
2017-12-08T17:28:27.768Z,99967.72
2017-12-08T17:30:53.665Z,99973.90
2017-12-08T17:33:19.432Z,99977.46
2017-12-08T17:35:45.210Z,99976.55
2017-12-08T17:38:11.135Z,99977.33
2017-12-08T17:40:37.852Z,99977.28
2017-12-08T17:43:03.666Z,99976.45
2017-12-08T17:45:29.455Z,99976.58
2017-12-08T17:47:55.227Z,99966.88
2017-12-08T17:50:21.075Z,99970.80
2017-12-08T17:52:46.852Z,99968.48
2017-12-08T17:55:12.624Z,99966.45
2017-12-08T17:57:38.454Z,99964.69
2017-12-08T18:00:04.264Z,99959.92
2017-12-08T18:02:30.067Z,99960.80
2017-12-08T18:04:55.835Z,99968.55
2017-12-08T18:07:21.635Z,99967.41
2017-12-08T18:09:47.483Z,99957.48
2017-12-08T18:12:13.365Z,99957.02
2017-12-08T18:14:39.176Z,99952.52
2017-12-08T18:17:04.996Z,99952.84
2017-12-08T18:19:30.973Z,99958.03
2017-12-08T18:21:56.815Z,99957.52
2017-12-08T18:24:22.591Z,99956.86
2017-12-08T18:26:48.640Z,99957.59
2017-12-08T18:29:14.415Z,99957.05
2017-12-08T18:31:40.247Z,99958.14
2017-12-08T18:34:06.195Z,99958.36
2017-12-08T18:36:32.014Z,99961.97
2017-12-08T18:38:57.801Z,99959.84
2017-12-08T18:41:23.593Z,99963.27
2017-12-08T18:43:49.524Z,99962.00
2017-12-08T18:46:15.295Z,99955.33
2017-12-08T18:48:41.080Z,99966.05
2017-12-08T18:51:06.960Z,99961.61
2017-12-08T18:53:32.729Z,99961.26
2017-12-08T18:55:58.678Z,99965.67
2017-12-08T18:58:24.485Z,99952.37
2017-12-08T19:00:50.287Z,99960.69
2017-12-08T19:03:17.007Z,99955.01
2017-12-08T19:05:43.742Z,99960.84
2017-12-08T19:08:10.497Z,99965.38
2017-12-08T19:10:36.360Z,99966.59
2017-12-08T19:13:02.184Z,99966.80
2017-12-08T19:15:28.856Z,99972.86
2017-12-08T19:17:55.628Z,99971.26
2017-12-08T19:20:21.583Z,99977.86
2017-12-08T19:22:47.368Z,99976.06
2017-12-08T19:25:13.168Z,99977.23
2017-12-08T19:27:39.056Z,99979.07
2017-12-08T19:30:04.852Z,99978.14
2017-12-08T19:32:30.657Z,99982.05
2017-12-08T19:34:56.503Z,99981.97
2017-12-08T19:37:22.279Z,99982.67
2017-12-08T19:39:48.052Z,99984.95
2017-12-08T19:42:13.871Z,99991.22
2017-12-08T19:44:39.647Z,99996.80
2017-12-08T19:47:05.419Z,100001.77
2017-12-08T19:49:31.315Z,100013.27
2017-12-08T19:51:57.087Z,100021.67
2017-12-08T19:54:23.789Z,100018.52
2017-12-08T19:56:50.479Z,100015.78
2017-12-08T19:59:17.423Z,100019.50
2017-12-08T20:01:43.223Z,100027.63
2017-12-08T20:04:09.027Z,100029.86
2017-12-08T20:06:34.799Z,100030.73
2017-12-08T20:09:00.600Z,100029.48
2017-12-08T20:11:26.372Z,100033.37
2017-12-08T20:13:53.181Z,100037.37
2017-12-08T20:16:18.959Z,100049.59
2017-12-08T20:18:44.739Z,100052.82
2017-12-08T20:21:10.520Z,100054.55
2017-12-08T20:23:36.297Z,100062.48
2017-12-08T20:26:02.083Z,100062.78
2017-12-08T20:28:27.845Z,100060.20
2017-12-08T20:30:53.618Z,100064.72
2017-12-08T20:33:19.386Z,100069.66
2017-12-08T20:35:45.150Z,100073.97
2017-12-08T20:38:11.797Z,100075.09
2017-12-08T20:40:37.563Z,100077.85
2017-12-08T20:43:03.327Z,100083.15
2017-12-08T20:45:29.100Z,100081.13
2017-12-08T20:47:54.879Z,100083.94
2017-12-08T20:50:20.656Z,100084.78
2017-12-08T20:52:46.419Z,100087.83
2017-12-08T20:55:12.361Z,100090.73
2017-12-08T20:57:38.132Z,100089.77
2017-12-08T21:00:03.933Z,100087.08
2017-12-08T21:02:29.704Z,100087.66
2017-12-08T21:04:55.479Z,100091.28
2017-12-08T21:07:21.259Z,100087.06
2017-12-08T21:09:47.034Z,100085.17
2017-12-08T21:12:12.815Z,100091.14
2017-12-08T21:14:38.620Z,100095.45
2017-12-08T21:17:04.391Z,100093.86
2017-12-08T21:19:30.163Z,100099.16
2017-12-08T21:21:55.926Z,100093.31
2017-12-08T21:24:21.871Z,100095.39
2017-12-08T21:26:47.648Z,100090.67
2017-12-08T21:29:13.423Z,100099.13
2017-12-08T21:31:39.196Z,100102.56
2017-12-08T21:34:04.960Z,100103.50
2017-12-08T21:36:30.727Z,100105.91
2017-12-08T21:38:56.501Z,100105.75
2017-12-08T21:41:22.394Z,100113.34
2017-12-08T21:43:48.209Z,100107.98
2017-12-08T21:46:13.979Z,100108.67
2017-12-08T21:48:39.758Z,100115.50
2017-12-08T21:51:05.531Z,100120.70
2017-12-08T21:53:31.331Z,100111.76
2017-12-08T21:55:57.152Z,100114.59
2017-12-08T21:58:22.947Z,100114.31
2017-12-08T22:00:48.719Z,100104.66
2017-12-08T22:03:14.523Z,100110.77
2017-12-08T22:05:40.725Z,100106.58
2017-12-08T22:08:06.499Z,100103.45
2017-12-08T22:10:32.303Z,100105.63
2017-12-08T22:12:58.104Z,100109.05
2017-12-08T22:15:23.919Z,100097.00
2017-12-08T22:17:49.793Z,100107.35
2017-12-08T22:20:15.575Z,100104.00
2017-12-08T22:22:41.344Z,100108.27
2017-12-08T22:25:07.159Z,100117.23
2017-12-08T22:27:32.984Z,100124.61
2017-12-08T22:29:58.759Z,100125.81
2017-12-08T22:37:43.648Z,100132.05
2017-12-08T22:40:10.604Z,100129.36
2017-12-08T22:42:36.380Z,100133.86
2017-12-08T22:45:02.172Z,100134.08
2017-12-08T22:47:28.129Z,100134.69
2017-12-08T22:49:53.899Z,100134.69
2017-12-08T22:52:19.862Z,100140.27
2017-12-08T22:54:45.776Z,100134.00
2017-12-08T22:57:11.747Z,100144.91
2017-12-08T22:59:37.533Z,100147.45
2017-12-08T23:02:04.145Z,100147.63
2017-12-08T23:04:30.988Z,100149.45
2017-12-08T23:06:56.848Z,100142.77
2017-12-08T23:09:22.746Z,100130.53
2017-12-08T23:11:48.525Z,100133.18
2017-12-08T23:14:14.502Z,100124.35
2017-12-08T23:16:40.280Z,100127.67
2017-12-08T23:19:06.228Z,100126.90
2017-12-08T23:21:31.995Z,100128.94
2017-12-08T23:23:57.763Z,100122.45
2017-12-08T23:26:23.532Z,100121.91
2017-12-08T23:28:49.363Z,100121.83
2017-12-08T23:31:15.119Z,100123.30
2017-12-08T23:33:40.896Z,100135.39
2017-12-08T23:36:07.635Z,100136.91
2017-12-08T23:38:34.320Z,100144.72
2017-12-08T23:41:00.092Z,100142.35
2017-12-08T23:43:25.862Z,100142.99
2017-12-08T23:45:51.775Z,100143.19
2017-12-08T23:48:18.483Z,100149.52
2017-12-08T23:50:44.257Z,100145.98
2017-12-08T23:53:10.032Z,100144.73
2017-12-08T23:55:36.639Z,100143.34
2017-12-08T23:58:02.412Z,100140.95
